createdAt,value
2022-11-30T00:00:31.713Z,15.1
2022-11-30T00:01:46.825Z,15.1
2022-11-30T00:03:03.106Z,15.1
2022-11-30T00:04:19.201Z,15.1
2022-11-30T00:05:35.494Z,15.1
2022-11-30T00:06:51.680Z,15.1
2022-11-30T00:08:07.865Z,15.1
2022-11-30T00:09:24.049Z,15.1
2022-11-30T00:10:40.148Z,15.1
2022-11-30T00:11:56.440Z,15.1
2022-11-30T00:13:12.630Z,15.1
2022-11-30T00:14:28.806Z,15.1
2022-11-30T00:15:44.909Z,15.1
2022-11-30T00:17:01.198Z,15.1
2022-11-30T00:18:16.300Z,15.1
2022-11-30T00:19:32.476Z,15.1
2022-11-30T00:20:48.780Z,15.1
2022-11-30T00:22:04.958Z,15.1
2022-11-30T00:23:21.154Z,15.1
2022-11-30T00:24:37.342Z,15.1
2022-11-30T00:25:53.435Z,15.1
2022-11-30T00:27:09.718Z,15.1
2022-11-30T00:28:25.904Z,15.1
2022-11-30T00:29:42.103Z,15.1
2022-11-30T00:30:58.284Z,15.1
2022-11-30T00:32:14.372Z,15.1
2022-11-30T00:33:30.669Z,15.1
2022-11-30T00:34:45.871Z,15.1
2022-11-30T00:36:01.951Z,15.1
2022-11-30T00:37:18.251Z,15.1
2022-11-30T00:38:34.431Z,15.1
2022-11-30T00:39:50.621Z,15.1
2022-11-30T00:41:06.721Z,15.1
2022-11-30T00:42:22.893Z,15.1
2022-11-30T00:43:39.081Z,15.1
2022-11-30T00:44:55.380Z,15.1
2022-11-30T00:46:11.568Z,15.1
2022-11-30T00:47:27.648Z,15.1
2022-11-30T00:48:43.855Z,15.1
2022-11-30T00:50:00.136Z,15.1
2022-11-30T00:51:15.341Z,15.1
2022-11-30T00:52:31.423Z,15.1
2022-11-30T00:53:47.728Z,15.1
2022-11-30T00:55:03.911Z,15.1
2022-11-30T00:56:20.001Z,15.1
2022-11-30T00:57:36.179Z,15.1
2022-11-30T00:58:52.487Z,15.1
2022-11-30T01:00:08.663Z,15.1
2022-11-30T01:01:24.853Z,15.1
2022-11-30T01:02:41.058Z,15.1
2022-11-30T01:03:57.136Z,15.1
2022-11-30T01:05:13.426Z,15.1
2022-11-30T01:06:29.611Z,15.1
2022-11-30T01:07:44.812Z,15.1
2022-11-30T01:09:01.005Z,15.1
2022-11-30T01:10:17.088Z,15.1
2022-11-30T01:11:33.277Z,15.1
2022-11-30T01:12:49.571Z,15.1
2022-11-30T01:14:05.768Z,15.1
2022-11-30T01:15:21.964Z,15.1
2022-11-30T01:16:38.027Z,15.1
2022-11-30T01:17:54.326Z,15.1
2022-11-30T01:19:10.419Z,15.1
2022-11-30T01:20:26.704Z,15.1
2022-11-30T01:21:42.904Z,15.1
2022-11-30T01:22:58.967Z,15.1
2022-11-30T01:24:14.194Z,15.1
2022-11-30T01:25:30.491Z,15.1
2022-11-30T01:26:46.552Z,15.1
2022-11-30T01:28:02.873Z,15.1
2022-11-30T01:29:19.059Z,15.1
2022-11-30T01:30:35.118Z,15.1
2022-11-30T01:31:51.431Z,15.1
2022-11-30T01:33:07.629Z,15.1
2022-11-30T01:34:23.809Z,15.1
2022-11-30T01:35:39.999Z,15.1
2022-11-30T01:36:56.069Z,15.1
2022-11-30T01:38:12.386Z,15.1
2022-11-30T01:39:28.560Z,15.1
2022-11-30T01:40:43.771Z,15.1
2022-11-30T01:41:59.855Z,15.1
2022-11-30T01:43:16.045Z,15.1
2022-11-30T01:44:32.232Z,15.1
2022-11-30T01:45:48.419Z,15.1
2022-11-30T01:47:04.602Z,15.1
2022-11-30T01:48:20.786Z,15.1
2022-11-30T01:49:36.968Z,15.1
2022-11-30T01:50:53.283Z,15.1
2022-11-30T01:52:09.481Z,15.1
2022-11-30T01:53:25.674Z,15.1
2022-11-30T01:54:41.850Z,15.1
2022-11-30T01:55:58.045Z,15.1
2022-11-30T01:57:13.133Z,15.1
2022-11-30T01:58:29.433Z,15.1
2022-11-30T01:59:45.621Z,15.1
2022-11-30T02:01:01.815Z,15.1
2022-11-30T02:02:17.887Z,15.1
2022-11-30T02:03:34.196Z,15.1
2022-11-30T02:04:50.388Z,15.1
2022-11-30T02:06:06.568Z,15.1
2022-11-30T02:07:22.763Z,15.1
2022-11-30T02:08:38.948Z,15.1
2022-11-30T02:09:55.135Z,15.1
2022-11-30T02:11:11.335Z,15.1
2022-11-30T02:12:27.400Z,15.1
2022-11-30T02:13:42.607Z,15.1
2022-11-30T02:14:58.904Z,15.1
2022-11-30T02:16:15.105Z,15.1
2022-11-30T02:17:31.293Z,15.1
2022-11-30T02:18:47.000Z,15.1
2022-11-30T02:20:03.534Z,15.1
2022-11-30T02:21:19.867Z,15.1
2022-11-30T02:22:36.050Z,15.1
2022-11-30T02:23:52.234Z,15
2022-11-30T02:25:08.290Z,15.1
2022-11-30T02:26:24.486Z,15.1
2022-11-30T02:27:40.677Z,15.1
2022-11-30T02:28:56.988Z,15.1
2022-11-30T02:30:12.080Z,15.1
2022-11-30T02:31:28.390Z,15.1
2022-11-30T02:32:44.441Z,15.1
2022-11-30T02:34:00.771Z,15.1
2022-11-30T02:35:16.833Z,15.1
2022-11-30T02:36:33.145Z,15.1
2022-11-30T02:37:49.214Z,15.1
2022-11-30T02:39:05.386Z,15.1
2022-11-30T02:40:21.580Z,15.1
2022-11-30T02:41:37.892Z,15
2022-11-30T02:42:53.954Z,15.1
2022-11-30T02:44:10.280Z,15
2022-11-30T02:45:26.469Z,15
2022-11-30T02:46:41.680Z,15.1
2022-11-30T02:47:57.865Z,15.1
2022-11-30T02:49:14.000Z,15
2022-11-30T02:50:30.112Z,15
2022-11-30T02:51:46.297Z,15
2022-11-30T02:53:02.620Z,15.1
2022-11-30T02:54:18.806Z,15.1
2022-11-30T02:55:35.000Z,15.1
2022-11-30T02:56:51.193Z,15.1
2022-11-30T02:58:07.377Z,15.1
2022-11-30T02:59:23.564Z,15.1
2022-11-30T03:00:39.758Z,15.1
2022-11-30T03:01:55.949Z,15.1
2022-11-30T03:03:11.147Z,15.1
2022-11-30T03:04:27.206Z,15.1
2022-11-30T03:05:43.400Z,15.1
2022-11-30T03:06:59.714Z,15.1
2022-11-30T03:08:15.910Z,15.1
2022-11-30T03:09:31.949Z,15.1
2022-11-30T03:10:48.144Z,15.1
2022-11-30T03:12:04.472Z,15.1
2022-11-30T03:13:20.515Z,15.1
2022-11-30T03:14:36.699Z,15.1
2022-11-30T03:15:53.029Z,15.1
2022-11-30T03:17:09.215Z,15.1
2022-11-30T03:18:25.402Z,15.1
2022-11-30T03:19:40.600Z,15.1
2022-11-30T03:20:56.646Z,15.1
2022-11-30T03:22:12.972Z,15.1
2022-11-30T03:23:29.179Z,15
2022-11-30T03:24:45.354Z,15.1
2022-11-30T03:26:01.399Z,15.1
2022-11-30T03:27:17.730Z,15.1
2022-11-30T03:28:33.778Z,15.1
2022-11-30T03:29:49.957Z,15.1
2022-11-30T03:31:06.144Z,15.1
2022-11-30T03:32:22.473Z,15.1
2022-11-30T03:33:38.678Z,15.1
2022-11-30T03:34:54.852Z,15.1
2022-11-30T03:36:09.912Z,15.1
2022-11-30T03:37:26.249Z,15.1
2022-11-30T03:38:42.300Z,15
2022-11-30T03:39:58.613Z,15
2022-11-30T03:41:14.808Z,15.1
2022-11-30T03:42:30.995Z,15
2022-11-30T03:43:47.040Z,15.1
2022-11-30T03:45:03.222Z,15.1
2022-11-30T03:46:19.568Z,15.1
2022-11-30T03:47:35.746Z,15
2022-11-30T03:48:51.934Z,15
2022-11-30T03:50:07.973Z,15
2022-11-30T03:51:24.153Z,15.1
2022-11-30T03:52:39.518Z,15
2022-11-30T03:53:55.693Z,15.1
2022-11-30T03:55:11.742Z,15
2022-11-30T03:56:28.081Z,15
2022-11-30T03:57:44.254Z,15.1
2022-11-30T03:59:00.312Z,15.1
2022-11-30T04:00:16.480Z,15
2022-11-30T04:01:32.667Z,15
2022-11-30T04:02:49.023Z,15
2022-11-30T04:04:05.198Z,15
2022-11-30T04:05:21.227Z,15
2022-11-30T04:06:37.574Z,15
2022-11-30T04:07:53.615Z,15
2022-11-30T04:09:08.963Z,15
2022-11-30T04:10:25.154Z,15
2022-11-30T04:11:41.181Z,15
2022-11-30T04:12:57.537Z,15
2022-11-30T04:14:13.559Z,15.1
2022-11-30T04:15:29.896Z,15
2022-11-30T04:16:45.104Z,15
2022-11-30T04:18:01.310Z,15.1
2022-11-30T04:19:17.480Z,15
2022-11-30T04:20:33.514Z,15
2022-11-30T04:21:49.703Z,15
2022-11-30T04:23:06.056Z,15
2022-11-30T04:24:22.230Z,15
2022-11-30T04:25:38.422Z,15.1
2022-11-30T04:26:54.465Z,15.1
2022-11-30T04:28:10.794Z,15.1
2022-11-30T04:29:26.981Z,15.1
2022-11-30T04:30:43.183Z,15
2022-11-30T04:31:59.367Z,15.1
2022-11-30T04:33:14.413Z,15
2022-11-30T04:34:30.767Z,15
2022-11-30T04:35:46.942Z,15
2022-11-30T04:37:03.119Z,15
2022-11-30T04:38:19.305Z,15
2022-11-30T04:39:35.509Z,15.1
2022-11-30T04:40:51.683Z,15
2022-11-30T04:42:07.712Z,15
2022-11-30T04:43:24.065Z,15
2022-11-30T04:44:40.083Z,15.1
2022-11-30T04:45:56.290Z,15.1
2022-11-30T04:47:12.623Z,15
2022-11-30T04:48:28.659Z,15
2022-11-30T04:49:44.014Z,15
2022-11-30T04:51:00.208Z,15
2022-11-30T04:52:16.225Z,15
2022-11-30T04:53:32.410Z,15
2022-11-30T04:54:48.767Z,15
2022-11-30T04:56:04.963Z,15
2022-11-30T04:57:21.139Z,15
2022-11-30T04:58:37.330Z,15
2022-11-30T04:59:53.348Z,15
2022-11-30T05:01:09.700Z,15
2022-11-30T05:02:25.721Z,15
2022-11-30T05:03:42.090Z,15
2022-11-30T05:04:58.095Z,15
2022-11-30T05:06:13.465Z,15
2022-11-30T05:07:29.653Z,15
2022-11-30T05:08:45.837Z,15
2022-11-30T05:10:01.862Z,15
2022-11-30T05:11:18.060Z,15
2022-11-30T05:12:34.417Z,15
2022-11-30T05:13:50.601Z,15
2022-11-30T05:15:06.624Z,15
2022-11-30T05:16:22.971Z,15
2022-11-30T05:17:39.154Z,15
2022-11-30T05:18:55.348Z,15
2022-11-30T05:20:11.531Z,15
2022-11-30T05:21:27.555Z,15
2022-11-30T05:22:42.762Z,15
2022-11-30T05:23:58.949Z,15
2022-11-30T05:25:15.123Z,15
2022-11-30T05:26:31.484Z,15
2022-11-30T05:27:47.678Z,15
2022-11-30T05:29:03.866Z,15
2022-11-30T05:30:19.874Z,15
2022-11-30T05:31:36.071Z,15
2022-11-30T05:32:52.416Z,15
2022-11-30T05:34:08.615Z,15
2022-11-30T05:35:24.791Z,15
2022-11-30T05:36:40.818Z,15
2022-11-30T05:37:57.004Z,15
2022-11-30T05:39:12.385Z,15
2022-11-30T05:40:28.573Z,15
2022-11-30T05:41:44.762Z,15
2022-11-30T05:43:00.961Z,15
2022-11-30T05:44:17.136Z,15
2022-11-30T05:45:33.135Z,15
2022-11-30T05:46:49.502Z,15
2022-11-30T05:48:05.511Z,15
2022-11-30T05:49:21.696Z,15
2022-11-30T05:50:38.072Z,15
2022-11-30T05:51:54.253Z,15
2022-11-30T05:53:10.263Z,15
2022-11-30T05:54:26.634Z,15
2022-11-30T05:55:41.834Z,15
2022-11-30T05:56:58.017Z,15
2022-11-30T05:58:14.039Z,15
2022-11-30T05:59:30.399Z,15
2022-11-30T06:00:46.573Z,15
2022-11-30T06:02:02.595Z,15
2022-11-30T06:03:18.963Z,15
2022-11-30T06:04:35.139Z,15
2022-11-30T06:05:51.155Z,15
2022-11-30T06:07:07.520Z,15
2022-11-30T06:08:23.518Z,15
2022-11-30T06:09:39.887Z,15
2022-11-30T06:10:56.076Z,15
2022-11-30T06:12:11.107Z,15
2022-11-30T06:13:27.290Z,15
2022-11-30T06:14:43.481Z,15
2022-11-30T06:15:59.847Z,15
2022-11-30T06:17:16.028Z,15
2022-11-30T06:18:32.217Z,15
2022-11-30T06:19:48.225Z,15
2022-11-30T06:21:04.604Z,15
2022-11-30T06:22:20.781Z,15
2022-11-30T06:23:36.975Z,15
2022-11-30T06:24:53.155Z,15
2022-11-30T06:26:09.163Z,15
2022-11-30T06:27:25.529Z,15
2022-11-30T06:28:40.555Z,15
2022-11-30T06:29:56.916Z,15
2022-11-30T06:31:13.119Z,15
2022-11-30T06:32:29.112Z,15
2022-11-30T06:33:45.302Z,15
2022-11-30T06:35:01.492Z,15
2022-11-30T06:36:17.672Z,15
2022-11-30T06:37:34.056Z,15
2022-11-30T06:38:50.063Z,15
2022-11-30T06:40:06.424Z,15
2022-11-30T06:41:22.618Z,15
2022-11-30T06:42:38.810Z,15
2022-11-30T06:43:54.791Z,15
2022-11-30T06:45:10.196Z,15
2022-11-30T06:46:26.370Z,15.1
2022-11-30T06:47:42.568Z,15.1
2022-11-30T06:48:58.752Z,15.1
2022-11-30T06:50:14.932Z,15.1
2022-11-30T06:51:31.122Z,15.1
2022-11-30T06:52:47.129Z,15.1
2022-11-30T06:54:03.312Z,15.1
2022-11-30T06:55:19.695Z,15.1
2022-11-30T06:56:35.871Z,15.1
2022-11-30T06:57:52.058Z,15.1
2022-11-30T06:59:08.263Z,15.1
2022-11-30T07:00:24.252Z,15.1
2022-11-30T07:01:39.650Z,15.1
2022-11-30T07:02:55.831Z,15.1
2022-11-30T07:04:12.027Z,15.1
2022-11-30T07:05:28.011Z,15.1
2022-11-30T07:06:44.403Z,15.1
2022-11-30T07:08:00.384Z,15.1
2022-11-30T07:09:16.570Z,15.1
2022-11-30T07:10:32.949Z,15.1
2022-11-30T07:11:49.152Z,15.1
2022-11-30T07:13:05.323Z,15.1
2022-11-30T07:14:21.521Z,15.1
2022-11-30T07:15:37.515Z,15.1
2022-11-30T07:16:53.712Z,15.1
2022-11-30T07:18:09.096Z,15.1
2022-11-30T07:19:25.282Z,15.1
2022-11-30T07:20:41.478Z,15.1
2022-11-30T07:21:57.465Z,15.1
2022-11-30T07:23:13.859Z,15.1
2022-11-30T07:24:29.847Z,15.1
2022-11-30T07:25:46.026Z,15.1
2022-11-30T07:27:02.213Z,15.1
2022-11-30T07:28:18.601Z,15.1
2022-11-30T07:29:34.592Z,15.1
2022-11-30T07:30:50.787Z,15.1
2022-11-30T07:32:06.960Z,15.1
2022-11-30T07:33:23.346Z,15.1
2022-11-30T07:34:38.549Z,15.1
2022-11-30T07:35:54.742Z,15.1
2022-11-30T07:37:10.927Z,15.1
2022-11-30T07:38:27.106Z,15.1
2022-11-30T07:39:43.113Z,15.1
2022-11-30T07:40:59.486Z,15.1
2022-11-30T07:42:15.480Z,15.1
2022-11-30T07:43:31.861Z,15.1
2022-11-30T07:44:48.047Z,15.1
2022-11-30T07:46:04.239Z,15.1
2022-11-30T07:47:20.426Z,15.1
2022-11-30T07:48:36.624Z,15.1
2022-11-30T07:49:52.796Z,15.1
2022-11-30T07:51:08.013Z,15.1
2022-11-30T07:52:23.987Z,15.1
2022-11-30T07:53:40.387Z,15.1
2022-11-30T07:54:56.366Z,15.1
2022-11-30T07:56:12.762Z,15.1
2022-11-30T07:57:28.735Z,15.1
2022-11-30T07:58:44.932Z,15.1
2022-11-30T08:00:01.318Z,15.1
2022-11-30T08:01:17.516Z,15.1
2022-11-30T08:02:33.495Z,15.1
2022-11-30T08:03:49.678Z,15.1
2022-11-30T08:05:05.871Z,15.1
2022-11-30T08:06:22.265Z,15.1
2022-11-30T08:07:37.267Z,15.1
2022-11-30T08:08:53.445Z,15.1
2022-11-30T08:10:09.641Z,15.2
2022-11-30T08:11:26.021Z,15.1
2022-11-30T08:12:42.208Z,15.2
2022-11-30T08:13:58.192Z,15.2
2022-11-30T08:15:14.374Z,15.2
2022-11-30T08:16:30.574Z,15.2
2022-11-30T08:17:46.745Z,15.2
2022-11-30T08:19:02.939Z,15.2
2022-11-30T08:20:19.336Z,15.2
2022-11-30T08:21:35.308Z,15.2
2022-11-30T08:22:51.509Z,15.2
2022-11-30T08:24:06.711Z,15.2
2022-11-30T08:25:22.895Z,15.2
2022-11-30T08:26:39.290Z,15.2
2022-11-30T08:27:55.481Z,15.2
2022-11-30T08:29:11.667Z,15.2
2022-11-30T08:30:27.859Z,15.2
2022-11-30T08:31:43.071Z,15.2
2022-11-30T08:32:59.253Z,15.2
2022-11-30T08:34:15.235Z,15.2
2022-11-30T08:35:31.633Z,15.2
2022-11-30T08:36:47.810Z,15.2
2022-11-30T08:38:03.787Z,15.2
2022-11-30T08:39:20.191Z,15.2
2022-11-30T08:40:36.378Z,15.2
2022-11-30T08:41:52.569Z,15.2
2022-11-30T08:43:08.757Z,15.2
2022-11-30T08:44:24.935Z,15.2
2022-11-30T08:45:41.119Z,15.2
2022-11-30T08:46:57.092Z,15.2
2022-11-30T08:48:12.310Z,15.2
2022-11-30T08:49:28.494Z,15.2
2022-11-30T08:50:44.889Z,15.2
2022-11-30T08:52:01.080Z,15.2
2022-11-30T08:53:17.270Z,15.2
2022-11-30T08:54:33.238Z,15.2
2022-11-30T08:55:49.431Z,15.2
2022-11-30T08:57:05.615Z,15.2
2022-11-30T08:58:22.025Z,15.2
2022-11-30T08:59:37.978Z,15.2
2022-11-30T09:00:54.165Z,15.2
2022-11-30T09:02:10.586Z,15.2
2022-11-30T09:03:26.557Z,15.2
2022-11-30T09:04:41.968Z,15.2
2022-11-30T09:05:58.150Z,15.2
2022-11-30T09:07:14.351Z,15.2
2022-11-30T09:08:30.536Z,15.2
2022-11-30T09:09:46.719Z,15.2
2022-11-30T09:11:02.682Z,15.2
2022-11-30T09:12:18.878Z,15.2
2022-11-30T09:13:35.285Z,15.3
2022-11-30T09:14:51.250Z,15.3
2022-11-30T09:16:07.663Z,15.3
2022-11-30T09:17:23.837Z,15.3
2022-11-30T09:18:39.819Z,15.3
2022-11-30T09:19:56.218Z,15.3
2022-11-30T09:21:11.196Z,15.3
2022-11-30T09:22:27.621Z,15.3
2022-11-30T09:23:43.568Z,15.3
2022-11-30T09:24:59.766Z,15.3
2022-11-30T09:26:15.942Z,15.3
2022-11-30T09:27:32.365Z,15.4
2022-11-30T09:28:48.559Z,15.4
2022-11-30T09:30:04.734Z,15.4
2022-11-30T09:31:20.691Z,15.4
2022-11-30T09:32:37.114Z,15.4
2022-11-30T09:33:53.074Z,15.4
2022-11-30T09:35:09.485Z,15.4
2022-11-30T09:36:25.676Z,15.4
2022-11-30T09:37:40.875Z,15.4
2022-11-30T09:38:57.073Z,15.4
2022-11-30T09:40:13.256Z,15.4
2022-11-30T09:41:29.211Z,15.4
2022-11-30T09:42:45.634Z,15.4
2022-11-30T09:44:01.821Z,15.4
2022-11-30T09:45:18.009Z,15.4
2022-11-30T09:46:33.966Z,15.4
2022-11-30T09:47:50.377Z,15.4
2022-11-30T09:49:06.572Z,15.4
2022-11-30T09:50:22.522Z,15.4
2022-11-30T09:51:38.947Z,15.5
2022-11-30T09:52:55.131Z,15.5
2022-11-30T09:54:10.098Z,15.5
2022-11-30T09:55:26.529Z,15.5
2022-11-30T09:56:42.699Z,15.5
2022-11-30T09:57:58.898Z,15.5
2022-11-30T09:59:15.089Z,15.5
2022-11-30T10:00:31.280Z,15.5
2022-11-30T10:01:47.231Z,15.5
2022-11-30T10:03:03.422Z,15.5
2022-11-30T10:04:19.610Z,15.5
2022-11-30T10:05:36.016Z,15.5
2022-11-30T10:06:52.208Z,15.5
2022-11-30T10:08:08.161Z,15.5
2022-11-30T10:09:24.349Z,15.5
2022-11-30T10:10:39.557Z,15.5
2022-11-30T10:11:55.965Z,15.5
2022-11-30T10:13:12.163Z,15.5
2022-11-30T10:14:28.111Z,15.5
2022-11-30T10:15:44.292Z,15.5
2022-11-30T10:17:00.729Z,15.5
2022-11-30T10:18:16.909Z,15.6
2022-11-30T10:19:32.874Z,15.5
2022-11-30T10:20:49.049Z,15.6
2022-11-30T10:22:05.249Z,15.6
2022-11-30T10:23:21.659Z,15.6
2022-11-30T10:24:37.619Z,15.6
2022-11-30T10:25:54.047Z,15.6
2022-11-30T10:27:09.003Z,15.6
2022-11-30T10:28:25.195Z,15.6
2022-11-30T10:29:41.371Z,15.6
2022-11-30T10:30:57.565Z,15.6
2022-11-30T10:32:13.999Z,15.6
2022-11-30T10:33:30.186Z,15.6
2022-11-30T10:34:46.129Z,15.6
2022-11-30T10:36:02.547Z,15.6
2022-11-30T10:37:18.737Z,15.6
2022-11-30T10:38:34.931Z,15.6
2022-11-30T10:39:50.884Z,15.7
2022-11-30T10:41:07.314Z,15.6
2022-11-30T10:42:23.000Z,15.7
2022-11-30T10:43:38.701Z,15.7
2022-11-30T10:44:54.876Z,15.7
2022-11-30T10:46:11.060Z,15.7
2022-11-30T10:47:27.018Z,15.7
2022-11-30T10:48:43.208Z,15.7
2022-11-30T10:49:59.393Z,15.7
2022-11-30T10:51:15.818Z,15.7
2022-11-30T10:52:31.757Z,15.7
2022-11-30T10:53:47.961Z,15.7
2022-11-30T10:55:04.131Z,15.7
2022-11-30T10:56:20.569Z,15.7
2022-11-30T10:57:36.511Z,15.7
2022-11-30T10:58:52.709Z,15.7
2022-11-30T11:00:07.913Z,15.7
2022-11-30T11:01:24.343Z,15.7
2022-11-30T11:02:40.270Z,15.7
2022-11-30T11:03:56.712Z,15.7
2022-11-30T11:05:12.657Z,15.7
2022-11-30T11:06:28.843Z,15.7
2022-11-30T11:07:45.275Z,15.7
2022-11-30T11:09:01.467Z,15.7
2022-11-30T11:10:17.655Z,15.7
2022-11-30T11:11:33.829Z,15.8
2022-11-30T11:12:49.771Z,15.8
2022-11-30T11:14:05.965Z,15.8
2022-11-30T11:15:22.402Z,15.8
2022-11-30T11:16:37.598Z,15.8
2022-11-30T11:17:53.789Z,15.8
2022-11-30T11:19:09.971Z,15.8
2022-11-30T11:20:26.163Z,15.8
2022-11-30T11:21:42.357Z,15.8
2022-11-30T11:22:58.550Z,15.8
2022-11-30T11:24:14.718Z,15.8
2022-11-30T11:25:30.657Z,15.8
2022-11-30T11:26:47.104Z,15.8
2022-11-30T11:28:03.048Z,15.8
2022-11-30T11:29:19.473Z,15.8
2022-11-30T11:30:35.414Z,15.8
2022-11-30T11:31:51.598Z,15.8
2022-11-30T11:33:07.064Z,15.8
2022-11-30T11:34:23.244Z,15.8
2022-11-30T11:35:39.187Z,15.9
2022-11-30T11:36:55.617Z,15.8
2022-11-30T11:38:11.797Z,15.8
2022-11-30T11:39:27.744Z,15.9
2022-11-30T11:40:43.922Z,15.9
2022-11-30T11:42:00.362Z,15.9
2022-11-30T11:43:16.294Z,15.9
2022-11-30T11:44:32.492Z,15.9
2022-11-30T11:45:48.924Z,15.9
2022-11-30T11:47:05.128Z,15.9
2022-11-30T11:48:21.315Z,15.9
2022-11-30T11:49:36.251Z,15.9
2022-11-30T11:50:52.441Z,15.9
2022-11-30T11:52:08.892Z,15.9
2022-11-30T11:53:24.818Z,15.9
2022-11-30T11:54:41.266Z,15.9
2022-11-30T11:55:57.194Z,15.9
2022-11-30T11:57:13.644Z,15.9
2022-11-30T11:58:29.574Z,15.9
2022-11-30T11:59:46.004Z,15.9
2022-11-30T12:01:02.203Z,15.9
2022-11-30T12:02:18.389Z,15.9
2022-11-30T12:03:34.568Z,15.9
2022-11-30T12:04:50.765Z,15.9
2022-11-30T12:06:05.706Z,15.9
2022-11-30T12:07:21.900Z,15.9
2022-11-30T12:08:38.338Z,15.9
2022-11-30T12:09:54.262Z,15.9
2022-11-30T12:11:10.708Z,15.9
2022-11-30T12:12:26.898Z,15.9
2022-11-30T12:13:42.824Z,15.9
2022-11-30T12:14:59.280Z,15.9
2022-11-30T12:16:15.207Z,15.8
2022-11-30T12:17:31.647Z,15.9
2022-11-30T12:18:47.841Z,15.8
2022-11-30T12:20:04.034Z,15.8
2022-11-30T12:21:19.946Z,15.8
2022-11-30T12:22:35.150Z,15.8
2022-11-30T12:23:51.599Z,15.8
2022-11-30T12:25:07.789Z,15.8
2022-11-30T12:26:23.979Z,15.8
2022-11-30T12:27:40.161Z,15.8
2022-11-30T12:28:56.349Z,15.9
2022-11-30T12:30:12.280Z,15.9
2022-11-30T12:31:28.458Z,15.9
2022-11-30T12:32:44.925Z,15.9
2022-11-30T12:34:01.098Z,15.9
2022-11-30T12:35:17.030Z,15.9
2022-11-30T12:36:33.227Z,15.8
2022-11-30T12:37:49.663Z,15.9
2022-11-30T12:39:04.868Z,15.9
2022-11-30T12:40:21.062Z,15.9
2022-11-30T12:41:36.978Z,15.9
2022-11-30T12:42:53.443Z,15.9
2022-11-30T12:44:09.356Z,15.9
2022-11-30T12:45:25.820Z,15.9
2022-11-30T12:46:40.762Z,15.9
2022-11-30T12:47:56.947Z,15.9
2022-11-30T12:49:13.398Z,15.9
2022-11-30T12:50:29.321Z,15.9
2022-11-30T12:51:45.522Z,15.9
2022-11-30T12:53:01.975Z,15.9
2022-11-30T12:54:18.157Z,15.9
2022-11-30T12:55:34.069Z,15.9
2022-11-30T12:56:50.537Z,15.9
2022-11-30T12:58:06.723Z,15.9
2022-11-30T12:59:22.642Z,15.9
2022-11-30T13:00:39.098Z,15.9
2022-11-30T13:01:55.015Z,15.9
2022-11-30T13:03:10.226Z,15.9
2022-11-30T13:04:26.685Z,15.9
2022-11-30T13:05:42.875Z,15.9
2022-11-30T13:06:58.799Z,15.9
2022-11-30T13:08:15.256Z,15.9
2022-11-30T13:09:31.454Z,15.9
2022-11-30T13:10:47.627Z,15.9
2022-11-30T13:12:03.539Z,15.9
2022-11-30T13:13:20.017Z,15.9
2022-11-30T13:14:35.917Z,15.9
2022-11-30T13:15:52.382Z,15.8
2022-11-30T13:17:08.579Z,15.8
2022-11-30T13:18:24.770Z,15.8
2022-11-30T13:19:39.692Z,15.8
2022-11-30T13:20:56.163Z,15.8
2022-11-30T13:22:12.343Z,15.8
2022-11-30T13:23:28.538Z,15.8
2022-11-30T13:24:44.729Z,15.8
2022-11-30T13:26:00.633Z,15.8
2022-11-30T13:27:17.105Z,15.8
2022-11-30T13:28:33.303Z,15.8
2022-11-30T13:29:49.205Z,15.8
2022-11-30T13:31:05.666Z,15.8
2022-11-30T13:32:21.577Z,15.8
2022-11-30T13:33:38.044Z,15.8
2022-11-30T13:34:54.247Z,15.8
2022-11-30T13:36:09.444Z,15.8
2022-11-30T13:37:25.356Z,15.8
2022-11-30T13:38:41.550Z,15.7
2022-11-30T13:39:58.013Z,15.8
2022-11-30T13:41:14.195Z,15.7
2022-11-30T13:42:30.391Z,15.7
2022-11-30T13:43:46.579Z,15.7
2022-11-30T13:45:02.497Z,15.7
2022-11-30T13:46:18.956Z,15.8
2022-11-30T13:47:34.861Z,15.8
2022-11-30T13:48:51.348Z,15.7
2022-11-30T13:50:07.520Z,15.7
2022-11-30T13:51:23.433Z,15.7
2022-11-30T13:52:38.636Z,15.6
2022-11-30T13:53:55.104Z,15.6
2022-11-30T13:55:11.022Z,15.7
2022-11-30T13:56:27.483Z,15.7
2022-11-30T13:57:43.669Z,15.7
2022-11-30T13:58:59.871Z,15.8
2022-11-30T14:00:15.783Z,15.8
2022-11-30T14:01:32.261Z,15.7
2022-11-30T14:02:48.155Z,15.7
2022-11-30T14:04:04.340Z,15.7
2022-11-30T14:05:20.813Z,15.7
2022-11-30T14:06:37.014Z,15.7
2022-11-30T14:07:52.901Z,15.6
2022-11-30T14:09:08.401Z,15.6
2022-11-30T14:10:24.298Z,15.6
2022-11-30T14:11:40.780Z,15.6
2022-11-30T14:12:56.959Z,15.6
2022-11-30T14:14:13.154Z,15.6
2022-11-30T14:15:29.062Z,15.5
2022-11-30T14:16:45.237Z,15.5
2022-11-30T14:18:01.716Z,15.5
2022-11-30T14:19:17.920Z,15.5
2022-11-30T14:20:34.108Z,15.5
2022-11-30T14:21:50.279Z,15.5
2022-11-30T14:23:06.186Z,15.5
2022-11-30T14:24:22.665Z,15.5
2022-11-30T14:25:37.879Z,15.5
2022-11-30T14:26:54.061Z,15.5
2022-11-30T14:28:10.256Z,15.5
2022-11-30T14:29:26.143Z,15.5
2022-11-30T14:30:42.334Z,15.4
2022-11-30T14:31:58.815Z,15.5
2022-11-30T14:33:15.015Z,15.4
2022-11-30T14:34:31.202Z,15.4
2022-11-30T14:35:47.388Z,15.4
2022-11-30T14:37:03.565Z,15.4
2022-11-30T14:38:19.762Z,15.4
2022-11-30T14:39:35.954Z,15.4
2022-11-30T14:40:52.148Z,15.4
2022-11-30T14:42:07.347Z,15.4
2022-11-30T14:43:23.545Z,15.4
2022-11-30T14:44:39.731Z,15.4
2022-11-30T14:45:55.920Z,15.4
2022-11-30T14:47:12.098Z,15.4
2022-11-30T14:48:28.294Z,15.3
2022-11-30T14:49:44.479Z,15.3
2022-11-30T14:51:00.668Z,15.3
2022-11-30T14:52:16.563Z,15.3
2022-11-30T14:53:32.750Z,15.3
2022-11-30T14:54:48.942Z,15.3
2022-11-30T14:56:05.428Z,15.3
2022-11-30T14:57:21.612Z,15.3
2022-11-30T14:58:36.528Z,15.3
2022-11-30T14:59:53.014Z,15.3
2022-11-30T15:01:09.212Z,15.3
2022-11-30T15:02:25.399Z,15.3
2022-11-30T15:03:41.584Z,15.3
2022-11-30T15:04:57.772Z,15.3
2022-11-30T15:06:13.952Z,15.3
2022-11-30T15:07:29.852Z,15.3
2022-11-30T15:08:46.340Z,15.3
2022-11-30T15:10:02.536Z,15.3
2022-11-30T15:11:18.710Z,15.3
2022-11-30T15:12:34.912Z,15.3
2022-11-30T15:13:50.792Z,15.3
2022-11-30T15:15:06.295Z,15.3
2022-11-30T15:16:22.500Z,15.2
2022-11-30T15:17:38.685Z,15.2
2022-11-30T15:18:54.574Z,15.2
2022-11-30T15:20:11.062Z,15.2
2022-11-30T15:21:26.945Z,15.2
2022-11-30T15:22:43.435Z,15.2
2022-11-30T15:23:59.327Z,15.2
2022-11-30T15:25:15.816Z,15.2
2022-11-30T15:26:32.013Z,15.2
2022-11-30T15:27:47.891Z,15.2
2022-11-30T15:29:04.389Z,15.2
2022-11-30T15:30:20.582Z,15.2
2022-11-30T15:31:35.470Z,15.2
2022-11-30T15:32:51.661Z,15.2
2022-11-30T15:34:08.153Z,15.2
2022-11-30T15:35:24.337Z,15.2
2022-11-30T15:36:40.228Z,15.2
2022-11-30T15:37:56.724Z,15.2
2022-11-30T15:39:12.907Z,15.2
2022-11-30T15:40:29.111Z,15.2
2022-11-30T15:41:45.299Z,15.2
2022-11-30T15:43:01.487Z,15.2
2022-11-30T15:44:17.671Z,15.2
2022-11-30T15:45:33.559Z,15.2
2022-11-30T15:46:50.060Z,15.2
2022-11-30T15:48:05.264Z,15.2
2022-11-30T15:49:21.127Z,15.1
2022-11-30T15:50:37.642Z,15.2
2022-11-30T15:51:53.521Z,15.2
2022-11-30T15:53:10.019Z,15.1
2022-11-30T15:54:25.897Z,15.1
2022-11-30T15:55:42.397Z,15.1
2022-11-30T15:56:58.586Z,15.1
2022-11-30T15:58:14.457Z,15.1
2022-11-30T15:59:30.956Z,15.1
2022-11-30T16:00:47.138Z,15.1
2022-11-30T16:02:03.035Z,15.1
2022-11-30T16:03:19.551Z,15.1
2022-11-30T16:04:34.739Z,15.1
2022-11-30T16:05:50.927Z,15.1
2022-11-30T16:07:07.107Z,15.1
2022-11-30T16:08:23.301Z,15.1
2022-11-30T16:09:39.179Z,15.1
2022-11-30T16:10:55.366Z,15.1
2022-11-30T16:12:11.859Z,15.1
2022-11-30T16:13:28.062Z,15.1
2022-11-30T16:14:44.252Z,15.1
2022-11-30T16:16:00.442Z,15.1
2022-11-30T16:17:16.628Z,15.1
2022-11-30T16:18:32.492Z,15.1
2022-11-30T16:19:49.012Z,15.1
2022-11-30T16:21:04.220Z,15.1
2022-11-30T16:22:20.392Z,15.1
2022-11-30T16:23:36.267Z,15.1
2022-11-30T16:24:52.470Z,15.1
2022-11-30T16:26:08.649Z,15.1
2022-11-30T16:27:25.146Z,15.1
2022-11-30T16:28:41.349Z,15.1
2022-11-30T16:29:57.526Z,15.1
2022-11-30T16:31:13.713Z,15.1
2022-11-30T16:32:29.602Z,15.1
2022-11-30T16:33:46.109Z,15.1
2022-11-30T16:35:02.286Z,15.1
2022-11-30T16:36:18.150Z,15.1
2022-11-30T16:37:33.365Z,15.1
2022-11-30T16:38:49.877Z,15.1
2022-11-30T16:40:05.750Z,15.1
2022-11-30T16:41:22.250Z,15.1
2022-11-30T16:42:38.434Z,15.1
2022-11-30T16:43:54.313Z,15
2022-11-30T16:45:10.826Z,15.1
2022-11-30T16:46:26.689Z,15.1
2022-11-30T16:47:42.870Z,15.1
2022-11-30T16:48:59.396Z,15
2022-11-30T16:50:15.581Z,15.1
2022-11-30T16:51:31.770Z,15.1
2022-11-30T16:52:47.956Z,15
2022-11-30T16:54:03.158Z,15
2022-11-30T16:55:19.032Z,15
2022-11-30T16:56:35.219Z,15
2022-11-30T16:57:51.725Z,15
2022-11-30T16:59:07.914Z,15
2022-11-30T17:00:24.114Z,15
2022-11-30T17:01:39.324Z,15
2022-11-30T17:02:55.518Z,15.1
2022-11-30T17:04:11.696Z,15
2022-11-30T17:05:27.889Z,15